createdAt,value
2022-10-09T00:01:13.431Z,0.60
2022-10-09T00:03:42.037Z,0.60
2022-10-09T00:06:10.634Z,0.60
2022-10-09T00:08:41.384Z,0.90
2022-10-09T00:11:09.580Z,1.08
2022-10-09T00:13:36.985Z,0.90
2022-10-09T00:16:06.285Z,1.10
2022-10-09T00:18:33.400Z,1.08
2022-10-09T00:21:00.002Z,1.25
2022-10-09T00:23:26.636Z,0.80
2022-10-09T00:25:55.864Z,1.10
2022-10-09T00:28:24.975Z,1.00
2022-10-09T00:30:52.388Z,0.90
2022-10-09T00:33:19.568Z,0.85
2022-10-09T00:35:46.785Z,0.95
2022-10-09T00:38:13.495Z,1.37
2022-10-09T00:40:40.305Z,1.13
2022-10-09T00:43:14.678Z,0.90
2022-10-09T00:45:45.185Z,1.02
2022-10-09T00:48:12.393Z,0.90
2022-10-09T00:50:44.881Z,1.10
2022-10-09T00:53:18.160Z,1.10
2022-10-09T00:55:45.275Z,1.00
2022-10-09T00:58:12.990Z,0.90
2022-10-09T01:00:40.614Z,1.02
2022-10-09T01:03:07.287Z,1.30
2022-10-09T01:05:58.479Z,0.90
2022-10-09T01:08:30.282Z,0.82
2022-10-09T01:11:08.960Z,1.10
2022-10-09T01:13:52.718Z,1.30
2022-10-09T01:16:28.010Z,1.60
2022-10-09T01:19:12.452Z,0.98
2022-10-09T01:21:46.470Z,1.08
2022-10-09T01:24:30.096Z,1.25
2022-10-09T01:27:18.274Z,1.67
2022-10-09T01:29:52.911Z,1.00
2022-10-09T01:32:23.995Z,0.90
2022-10-09T01:34:53.324Z,0.70
2022-10-09T01:37:22.182Z,1.40
2022-10-09T01:39:49.255Z,0.80
2022-10-09T01:42:18.508Z,0.77
2022-10-09T01:44:44.953Z,1.25
2022-10-09T01:47:16.957Z,1.38
2022-10-09T01:49:59.712Z,1.02
2022-10-09T01:52:39.149Z,1.23
2022-10-09T01:55:49.231Z,1.30
2022-10-09T01:58:39.547Z,1.00
2022-10-09T02:01:14.438Z,1.05
2022-10-09T02:03:44.660Z,1.02
2022-10-09T02:06:13.247Z,1.25
2022-10-09T02:08:41.412Z,1.83
2022-10-09T02:11:08.101Z,1.73
2022-10-09T02:13:35.771Z,0.98
2022-10-09T02:16:18.941Z,0.90
2022-10-09T02:18:50.331Z,1.38
2022-10-09T02:21:23.106Z,0.87
2022-10-09T02:23:51.589Z,0.85
2022-10-09T02:26:18.631Z,0.90
2022-10-09T02:28:46.080Z,1.00
2022-10-09T02:31:30.730Z,1.00
2022-10-09T02:33:59.119Z,1.13
2022-10-09T02:36:26.868Z,1.30
2022-10-09T02:38:55.307Z,1.10
2022-10-09T02:41:22.486Z,1.38
2022-10-09T02:43:49.480Z,1.17
2022-10-09T02:46:16.797Z,1.20
2022-10-09T02:48:43.476Z,1.13
2022-10-09T02:51:10.063Z,1.30
2022-10-09T02:53:36.609Z,1.15
2022-10-09T02:56:03.166Z,1.10
2022-10-09T02:58:34.844Z,1.20
2022-10-09T03:01:01.563Z,1.10
2022-10-09T03:03:28.082Z,0.93
2022-10-09T03:06:12.562Z,0.90
2022-10-09T03:08:41.576Z,1.33
2022-10-09T03:11:08.352Z,1.30
2022-10-09T03:13:34.998Z,0.98
2022-10-09T03:16:13.257Z,1.40
2022-10-09T03:18:41.058Z,1.40
2022-10-09T03:21:13.415Z,1.15
2022-10-09T03:23:42.614Z,1.60
2022-10-09T03:26:12.206Z,1.17
2022-10-09T03:28:41.607Z,1.27
2022-10-09T03:31:09.426Z,1.38
2022-10-09T03:33:36.788Z,1.05
2022-10-09T03:36:04.595Z,1.90
2022-10-09T03:38:31.355Z,1.30
2022-10-09T03:41:03.290Z,1.10
2022-10-09T03:43:29.787Z,0.80
2022-10-09T03:46:00.905Z,0.70
2022-10-09T03:48:27.626Z,1.70
2022-10-09T03:50:54.090Z,1.13
2022-10-09T03:53:20.578Z,0.90
2022-10-09T03:55:47.065Z,1.00
2022-10-09T03:58:13.487Z,1.88
2022-10-09T04:00:40.023Z,1.27
2022-10-09T04:03:06.546Z,1.30
2022-10-09T04:05:34.405Z,1.00
2022-10-09T04:08:00.871Z,0.90
2022-10-09T04:10:27.399Z,0.90
2022-10-09T04:12:53.880Z,0.70
2022-10-09T04:15:20.276Z,0.52
2022-10-09T04:17:46.700Z,1.08
2022-10-09T04:20:13.135Z,0.90
2022-10-09T04:22:39.564Z,0.80
2022-10-09T04:25:06.200Z,0.70
2022-10-09T04:27:32.559Z,0.63
2022-10-09T04:29:58.948Z,0.50
2022-10-09T04:32:25.375Z,0.40
2022-10-09T04:34:51.740Z,0.50
2022-10-09T04:37:18.144Z,0.60
2022-10-09T04:39:44.490Z,0.40
2022-10-09T04:42:10.851Z,0.40
2022-10-09T04:44:37.179Z,0.80
2022-10-09T04:47:04.302Z,0.50
2022-10-09T04:49:31.808Z,0.60
2022-10-09T04:51:58.166Z,0.65
2022-10-09T04:54:24.628Z,1.15
2022-10-09T04:56:50.957Z,0.63
2022-10-09T04:59:17.315Z,0.80
2022-10-09T05:01:43.787Z,0.50
2022-10-09T05:04:10.309Z,1.08
2022-10-09T05:06:36.657Z,1.00
2022-10-09T05:09:03.324Z,1.00
2022-10-09T05:11:29.715Z,1.17
2022-10-09T05:13:58.050Z,1.23
2022-10-09T05:16:31.673Z,0.90
2022-10-09T05:18:59.324Z,1.02
2022-10-09T05:21:27.414Z,0.90
2022-10-09T05:23:55.058Z,1.02
2022-10-09T05:26:23.105Z,0.63
2022-10-09T05:28:50.121Z,0.75
2022-10-09T05:31:28.631Z,0.88
2022-10-09T05:33:58.184Z,1.00
2022-10-09T05:36:24.566Z,1.08
2022-10-09T05:38:50.999Z,0.70
2022-10-09T05:41:19.085Z,1.08
2022-10-09T05:43:47.513Z,0.93
2022-10-09T05:46:19.785Z,1.38
2022-10-09T05:48:52.406Z,1.13
2022-10-09T05:51:24.524Z,0.53
2022-10-09T05:53:51.573Z,0.82
2022-10-09T05:56:32.716Z,1.15
2022-10-09T05:59:01.682Z,1.50
2022-10-09T06:01:32.890Z,1.60
2022-10-09T06:04:00.419Z,1.70
2022-10-09T06:06:29.566Z,2.10
2022-10-09T06:08:56.894Z,1.65
2022-10-09T06:11:28.340Z,1.25
2022-10-09T06:14:04.916Z,1.42
2022-10-09T06:16:34.115Z,1.33
2022-10-09T06:19:02.207Z,1.30
2022-10-09T06:21:29.069Z,1.33
2022-10-09T06:23:57.620Z,1.30
2022-10-09T06:26:25.487Z,1.30
2022-10-09T06:28:52.930Z,1.40
2022-10-09T06:31:24.445Z,1.10
2022-10-09T06:33:52.233Z,1.10
2022-10-09T06:36:23.445Z,1.60
2022-10-09T06:38:50.448Z,1.42
2022-10-09T06:41:19.298Z,1.30
2022-10-09T06:43:51.405Z,1.30
2022-10-09T06:46:18.839Z,1.63
2022-10-09T06:48:46.218Z,19.95
2022-10-09T06:51:15.068Z,9.65
2022-10-09T06:53:50.062Z,5.60
2022-10-09T06:56:18.218Z,3.33
2022-10-09T06:58:45.113Z,2.85
2022-10-09T07:01:24.515Z,2.22
2022-10-09T07:03:56.422Z,2.08
2022-10-09T07:06:25.686Z,1.77
2022-10-09T07:08:55.148Z,1.85
2022-10-09T07:11:26.834Z,1.95
2022-10-09T07:13:56.831Z,1.90
2022-10-09T07:16:31.244Z,1.83
2022-10-09T07:18:59.961Z,2.20
2022-10-09T07:21:26.630Z,2.05
2022-10-09T07:23:54.080Z,2.13
2022-10-09T07:26:24.417Z,2.08
2022-10-09T07:28:51.943Z,2.00
2022-10-09T07:31:19.156Z,2.10
2022-10-09T07:33:50.422Z,2.13
2022-10-09T07:36:17.116Z,2.20
2022-10-09T07:38:50.099Z,2.20
2022-10-09T07:41:16.635Z,1.92
2022-10-09T07:43:43.768Z,2.37
2022-10-09T07:46:13.076Z,2.25
2022-10-09T07:48:39.899Z,2.30
2022-10-09T07:51:29.472Z,2.10
2022-10-09T07:53:57.401Z,2.35
2022-10-09T07:56:28.072Z,2.43
2022-10-09T07:58:57.247Z,2.40
2022-10-09T08:01:25.920Z,2.97
2022-10-09T08:03:55.654Z,1.65
2022-10-09T08:06:22.701Z,1.95
2022-10-09T08:08:53.449Z,2.17
2022-10-09T08:11:21.464Z,1.98
2022-10-09T08:13:49.354Z,2.38
2022-10-09T08:16:17.724Z,2.05
2022-10-09T08:18:44.198Z,2.15
2022-10-09T08:21:16.656Z,2.80
2022-10-09T08:23:43.549Z,1.80
2022-10-09T08:26:18.167Z,2.88
2022-10-09T08:29:10.847Z,1.80
2022-10-09T08:31:37.330Z,1.83
2022-10-09T08:34:03.819Z,2.30
2022-10-09T08:36:31.578Z,1.58
2022-10-09T08:38:58.317Z,1.20
2022-10-09T08:41:51.526Z,2.10
2022-10-09T08:44:22.379Z,1.90
2022-10-09T08:46:54.746Z,2.23
2022-10-09T08:49:29.302Z,1.98
2022-10-09T08:52:00.548Z,2.30
2022-10-09T08:54:39.537Z,1.75
2022-10-09T08:57:14.096Z,1.80
2022-10-09T08:59:40.746Z,1.80
2022-10-09T09:02:15.781Z,2.13
2022-10-09T09:05:06.170Z,1.90
2022-10-09T09:07:44.711Z,2.53
2022-10-09T09:10:34.291Z,2.03
2022-10-09T09:13:28.611Z,1.70
2022-10-09T09:16:13.864Z,2.00
2022-10-09T09:19:15.997Z,2.20
2022-10-09T09:21:53.186Z,2.13
2022-10-09T09:24:25.298Z,2.08
2022-10-09T09:26:55.276Z,1.90
2022-10-09T09:29:26.642Z,2.28
2022-10-09T09:31:59.322Z,1.65
2022-10-09T09:34:37.589Z,2.00
2022-10-09T09:37:04.076Z,1.58
2022-10-09T09:40:24.309Z,1.48
2022-10-09T09:42:21.516Z,1.55
2022-10-09T09:44:56.181Z,2.80
2022-10-09T09:47:43.390Z,1.70
2022-10-09T09:50:28.521Z,1.50
2022-10-09T09:52:57.250Z,1.67
2022-10-09T09:55:30.895Z,1.55
2022-10-09T09:58:03.015Z,3.05
2022-10-09T10:00:29.886Z,1.63
2022-10-09T10:03:24.138Z,1.63
2022-10-09T10:05:51.765Z,1.23
2022-10-09T10:08:38.482Z,1.40
2022-10-09T10:11:08.008Z,1.77
2022-10-09T10:13:39.743Z,1.48
2022-10-09T10:16:08.712Z,1.20
2022-10-09T10:18:41.704Z,2.05
2022-10-09T10:21:19.054Z,1.50
2022-10-09T10:24:22.988Z,1.15
2022-10-09T10:26:55.778Z,1.13
2022-10-09T10:29:38.738Z,1.13
2022-10-09T10:32:22.516Z,1.10
2022-10-09T10:35:02.618Z,1.33
2022-10-09T10:37:45.375Z,1.30
2022-10-09T10:40:19.740Z,1.20
2022-10-09T10:43:03.970Z,1.48
2022-10-09T10:45:55.791Z,1.60
2022-10-09T10:48:28.838Z,1.47
2022-10-09T10:51:13.668Z,1.48
2022-10-09T10:54:18.547Z,2.10
2022-10-09T10:56:50.909Z,0.73
2022-10-09T10:59:40.012Z,0.85
2022-10-09T11:02:06.357Z,0.83
2022-10-09T11:07:46.537Z,0.60
2022-10-09T11:10:21.414Z,0.52
2022-10-09T11:13:00.225Z,0.82
2022-10-09T11:15:37.580Z,1.15
2022-10-09T11:18:32.265Z,1.70
2022-10-09T11:21:21.667Z,2.17
2022-10-09T11:24:28.018Z,1.63
2022-10-09T11:27:13.831Z,1.52
2022-10-09T11:30:02.434Z,1.42
2022-10-09T11:32:59.835Z,1.17
2022-10-09T11:35:37.588Z,1.83
2022-10-09T11:38:13.629Z,1.58
2022-10-09T11:40:53.477Z,1.00
2022-10-09T11:43:25.845Z,1.00
2022-10-09T11:46:10.670Z,1.07
2022-10-09T11:49:18.436Z,1.10
2022-10-09T11:52:18.739Z,0.82
2022-10-09T11:54:46.113Z,1.08
2022-10-09T11:57:27.341Z,1.35
2022-10-09T12:00:07.280Z,1.07
2022-10-09T12:02:34.673Z,0.70
2022-10-09T12:05:01.974Z,0.70
2022-10-09T12:07:31.166Z,0.77
2022-10-09T12:10:21.041Z,1.73
2022-10-09T12:13:08.202Z,1.30
2022-10-09T12:15:50.030Z,0.93
2022-10-09T12:18:24.900Z,0.82
2022-10-09T12:20:52.998Z,0.85
2022-10-09T12:23:27.124Z,1.38
2022-10-09T12:25:55.376Z,0.80
2022-10-09T12:28:33.231Z,0.55
2022-10-09T12:31:01.359Z,0.60
2022-10-09T12:33:39.283Z,0.45
2022-10-09T12:36:11.412Z,0.93
2022-10-09T12:38:37.946Z,1.37
2022-10-09T12:41:08.481Z,0.77
2022-10-09T12:43:36.476Z,0.77
2022-10-09T12:46:03.385Z,0.85
2022-10-09T12:48:42.443Z,1.33
2022-10-09T12:51:17.551Z,0.93
2022-10-09T12:53:49.990Z,1.30
2022-10-09T12:56:33.059Z,1.10
2022-10-09T12:59:00.973Z,1.08
2022-10-09T13:01:30.679Z,1.00
2022-10-09T13:04:05.858Z,0.97
2022-10-09T13:06:40.187Z,1.17
2022-10-09T13:09:15.809Z,1.35
2022-10-09T13:11:45.613Z,1.10
2022-10-09T13:14:53.253Z,1.20
2022-10-09T13:17:41.028Z,1.60
2022-10-09T13:20:16.352Z,1.25
2022-10-09T13:23:00.235Z,0.95
2022-10-09T13:25:31.884Z,1.30
2022-10-09T13:27:58.917Z,1.15
2022-10-09T13:30:27.023Z,1.57
2022-10-09T13:32:54.400Z,1.05
2022-10-09T13:35:21.736Z,1.27
2022-10-09T13:37:48.698Z,1.00
2022-10-09T13:40:18.148Z,1.48
2022-10-09T13:42:52.573Z,1.40
2022-10-09T13:45:19.000Z,1.33
2022-10-09T13:47:45.422Z,1.00
2022-10-09T13:50:16.071Z,0.77
2022-10-09T13:52:42.657Z,1.08
2022-10-09T13:55:09.953Z,0.90
2022-10-09T13:57:36.439Z,1.40
2022-10-09T14:00:06.056Z,1.10
2022-10-09T14:02:32.546Z,0.82
2022-10-09T14:04:58.912Z,1.30
2022-10-09T14:07:25.535Z,1.17
2022-10-09T14:09:51.984Z,1.00
2022-10-09T14:12:18.415Z,1.20
2022-10-09T14:14:44.865Z,1.20
2022-10-09T14:17:11.283Z,0.95
2022-10-09T14:19:37.850Z,2.13
2022-10-09T14:22:04.248Z,1.27
2022-10-09T14:24:30.852Z,1.20
2022-10-09T14:26:58.370Z,1.02
2022-10-09T14:29:24.806Z,1.05
2022-10-09T14:31:51.693Z,1.27
2022-10-09T14:34:18.150Z,1.15
2022-10-09T14:36:44.662Z,0.85
2022-10-09T14:39:11.661Z,0.70
2022-10-09T14:41:38.225Z,0.90
2022-10-09T14:44:06.395Z,0.90
2022-10-09T14:46:37.780Z,1.10
2022-10-09T14:49:10.100Z,1.50
2022-10-09T14:51:38.324Z,1.10
2022-10-09T14:54:06.929Z,0.75
2022-10-09T14:56:38.012Z,1.37
2022-10-09T14:59:06.007Z,1.10
2022-10-09T15:01:34.202Z,1.48
2022-10-09T15:04:01.040Z,0.95
2022-10-09T15:06:28.866Z,0.75
2022-10-09T15:09:03.040Z,1.10
2022-10-09T15:11:32.707Z,1.35
2022-10-09T15:13:59.151Z,0.88
2022-10-09T15:16:29.031Z,1.23
2022-10-09T15:18:56.316Z,0.70
2022-10-09T15:21:31.741Z,0.87
2022-10-09T15:24:00.256Z,1.15
2022-10-09T15:26:28.015Z,0.63
2022-10-09T15:28:55.430Z,0.90
2022-10-09T15:31:34.919Z,0.70
2022-10-09T15:34:02.416Z,0.50
2022-10-09T15:36:33.153Z,0.75
2022-10-09T15:39:03.057Z,0.40
2022-10-09T15:41:31.963Z,0.50
2022-10-09T15:44:00.852Z,0.40
2022-10-09T15:46:29.396Z,0.30
2022-10-09T15:48:56.333Z,0.68
2022-10-09T15:51:23.504Z,0.40
2022-10-09T15:53:51.590Z,0.40
2022-10-09T15:56:21.419Z,0.40
2022-10-09T15:58:48.061Z,0.30
2022-10-09T16:01:16.638Z,0.40
2022-10-09T16:03:44.297Z,0.60
2022-10-09T16:06:13.552Z,0.60
2022-10-09T16:08:41.028Z,0.40
2022-10-09T16:13:39.245Z,0.65
2022-10-09T16:16:08.220Z,0.57
2022-10-09T16:18:35.246Z,0.52
2022-10-09T16:21:11.242Z,0.47
2022-10-09T16:23:37.788Z,0.87
2022-10-09T16:26:04.953Z,0.60
2022-10-09T16:28:32.218Z,0.55
2022-10-09T16:30:58.846Z,0.70
2022-10-09T16:33:25.841Z,1.15
2022-10-09T16:35:52.739Z,0.70
2022-10-09T16:38:19.248Z,0.75
2022-10-09T16:41:01.318Z,0.93
2022-10-09T16:43:32.187Z,0.60
2022-10-09T16:46:10.278Z,0.88
2022-10-09T16:48:36.883Z,1.10
2022-10-09T16:51:08.324Z,0.93
2022-10-09T16:53:34.967Z,0.80
2022-10-09T16:56:29.699Z,0.93
2022-10-09T16:58:59.654Z,0.57
2022-10-09T17:01:26.906Z,0.50
2022-10-09T17:03:55.059Z,0.70
2022-10-09T17:06:23.548Z,0.45
2022-10-09T17:08:51.812Z,1.08
2022-10-09T17:11:18.574Z,0.50
2022-10-09T17:13:46.205Z,0.90
2022-10-09T17:16:18.472Z,0.70
2022-10-09T17:18:46.251Z,2.85
2022-10-09T17:21:14.013Z,1.10
2022-10-09T17:23:40.531Z,1.80
2022-10-09T17:26:14.100Z,1.10
2022-10-09T17:28:42.187Z,1.08
2022-10-09T17:31:11.707Z,1.20
2022-10-09T17:33:48.301Z,0.80
2022-10-09T17:36:17.760Z,0.63
2022-10-09T17:38:45.443Z,0.50
2022-10-09T17:41:14.619Z,1.20
2022-10-09T17:43:41.471Z,1.08
2022-10-09T17:46:08.290Z,0.80
2022-10-09T17:48:38.911Z,1.15
2022-10-09T17:51:05.514Z,0.70
2022-10-09T17:53:32.058Z,0.90
2022-10-09T17:56:03.669Z,1.73
2022-10-09T17:58:30.203Z,1.08
2022-10-09T18:00:56.781Z,1.50
2022-10-09T18:03:24.038Z,1.70
2022-10-09T18:05:51.356Z,1.70
2022-10-09T18:08:19.457Z,2.17
2022-10-09T18:10:46.231Z,2.15
2022-10-09T18:13:13.087Z,1.92
2022-10-09T18:15:43.882Z,2.40
2022-10-09T18:18:11.302Z,1.67
2022-10-09T18:20:39.935Z,1.88
2022-10-09T18:23:07.306Z,2.17
2022-10-09T18:25:34.717Z,1.88
2022-10-09T18:28:01.228Z,1.53
2022-10-09T18:30:27.800Z,1.80
2022-10-09T18:32:54.573Z,1.90
2022-10-09T18:35:20.995Z,2.05
2022-10-09T18:37:47.373Z,1.70
2022-10-09T18:40:14.121Z,1.80
2022-10-09T18:42:40.549Z,1.48
2022-10-09T18:45:09.010Z,1.85
2022-10-09T18:47:35.978Z,1.75
2022-10-09T18:50:07.773Z,1.80
2022-10-09T18:52:35.545Z,1.83
2022-10-09T18:55:02.732Z,1.95
2022-10-09T18:57:29.724Z,2.60
2022-10-09T18:59:58.328Z,1.80
2022-10-09T19:02:26.939Z,2.22
2022-10-09T19:04:54.137Z,2.67
2022-10-09T19:07:20.930Z,1.67
2022-10-09T19:09:52.334Z,2.30
2022-10-09T19:12:21.487Z,2.00
2022-10-09T19:14:47.868Z,2.05
2022-10-09T19:17:14.876Z,2.27
2022-10-09T19:19:41.584Z,2.60
2022-10-09T19:22:11.678Z,2.92
2022-10-09T19:24:40.565Z,2.53
2022-10-09T19:27:07.048Z,3.10
2022-10-09T19:29:33.505Z,2.87
2022-10-09T19:31:59.982Z,2.85
2022-10-09T19:34:26.426Z,2.92
2022-10-09T19:36:53.128Z,2.63
2022-10-09T19:39:20.250Z,2.38
2022-10-09T19:41:48.641Z,3.27
2022-10-09T19:44:15.299Z,2.58
2022-10-09T19:46:41.856Z,3.25
2022-10-09T19:49:08.939Z,3.95
2022-10-09T19:51:36.678Z,2.80
2022-10-09T19:54:04.764Z,2.27
2022-10-09T19:56:33.393Z,3.28
2022-10-09T19:59:02.483Z,3.28
2022-10-09T20:01:30.423Z,2.95
2022-10-09T20:04:03.610Z,3.30
2022-10-09T20:06:30.321Z,3.50
2022-10-09T20:08:56.813Z,3.70
2022-10-09T20:11:23.392Z,3.60
2022-10-09T20:13:55.522Z,3.47
2022-10-09T20:16:23.666Z,3.30
2022-10-09T20:18:50.097Z,3.93
2022-10-09T20:21:17.960Z,3.40
2022-10-09T20:23:44.542Z,3.70
2022-10-09T20:26:17.028Z,3.45
2022-10-09T20:28:44.639Z,2.42
2022-10-09T20:31:22.827Z,2.80
2022-10-09T20:33:50.730Z,2.10
2022-10-09T20:36:32.536Z,2.28
2022-10-09T20:39:01.768Z,2.25
2022-10-09T20:41:30.173Z,2.92
2022-10-09T20:43:58.533Z,2.80
2022-10-09T20:46:26.211Z,3.15
2022-10-09T20:48:52.755Z,3.03
2022-10-09T20:51:20.623Z,2.55
2022-10-09T20:53:53.104Z,2.33
2022-10-09T20:56:19.586Z,2.73
2022-10-09T20:58:46.107Z,2.42
2022-10-09T21:01:14.212Z,2.50
2022-10-09T21:03:40.836Z,3.20
2022-10-09T21:06:09.352Z,2.40
2022-10-09T21:08:40.823Z,2.43
2022-10-09T21:11:09.500Z,2.95
2022-10-09T21:13:38.178Z,2.63
2022-10-09T21:16:10.795Z,3.03
2022-10-09T21:18:38.719Z,3.15
2022-10-09T21:21:22.044Z,3.87
2022-10-09T21:23:51.145Z,3.13
2022-10-09T21:26:19.500Z,3.42
2022-10-09T21:28:47.304Z,3.85
2022-10-09T21:31:19.451Z,4.35
2022-10-09T21:33:47.285Z,4.03
2022-10-09T21:36:25.629Z,3.70
2022-10-09T21:38:52.214Z,4.50
2022-10-09T21:41:18.836Z,3.85
2022-10-09T21:43:45.509Z,3.10
2022-10-09T21:46:12.059Z,2.83
2022-10-09T21:48:38.454Z,3.53
2022-10-09T21:51:05.091Z,3.42
2022-10-09T21:53:32.004Z,2.80
2022-10-09T21:55:58.453Z,3.85
2022-10-09T21:58:25.039Z,3.30
2022-10-09T22:00:56.495Z,2.83
2022-10-09T22:03:25.500Z,3.58
2022-10-09T22:05:54.666Z,2.88
2022-10-09T22:08:21.819Z,3.10
2022-10-09T22:10:49.660Z,3.40
2022-10-09T22:13:17.348Z,3.33
2022-10-09T22:15:48.827Z,3.30
2022-10-09T22:18:17.584Z,3.40
2022-10-09T22:20:47.746Z,3.40
2022-10-09T22:23:14.760Z,3.10
2022-10-09T22:25:41.160Z,3.78
2022-10-09T22:28:07.680Z,3.05
2022-10-09T22:30:34.468Z,2.92
2022-10-09T22:33:01.013Z,2.88
2022-10-09T22:35:27.909Z,3.43
2022-10-09T22:37:54.507Z,3.30
2022-10-09T22:40:20.990Z,3.70
2022-10-09T22:42:47.788Z,3.85
2022-10-09T22:45:14.584Z,2.92
2022-10-09T22:47:41.009Z,2.70
2022-10-09T22:50:07.987Z,3.15
2022-10-09T22:52:34.366Z,3.20
2022-10-09T22:55:00.801Z,3.00
2022-10-09T22:57:27.308Z,3.30
2022-10-09T22:59:53.660Z,2.93
2022-10-09T23:02:20.142Z,3.05
2022-10-09T23:04:46.545Z,2.95
2022-10-09T23:07:12.908Z,2.65
2022-10-09T23:09:39.301Z,3.17
2022-10-09T23:12:05.875Z,3.23
2022-10-09T23:14:32.359Z,3.03
2022-10-09T23:16:58.790Z,3.83
2022-10-09T23:19:25.257Z,3.40
2022-10-09T23:21:51.659Z,3.45
2022-10-09T23:24:18.179Z,3.67
2022-10-09T23:26:46.107Z,3.20
2022-10-09T23:29:17.799Z,3.38
2022-10-09T23:31:45.180Z,3.33
2022-10-09T23:34:12.259Z,3.20
2022-10-09T23:36:38.701Z,2.60
2022-10-09T23:39:06.556Z,3.00
2022-10-09T23:41:33.211Z,2.90
2022-10-09T23:43:59.653Z,2.90
2022-10-09T23:46:28.073Z,3.20
2022-10-09T23:48:55.231Z,2.93
2022-10-09T23:51:24.186Z,2.88
2022-10-09T23:53:51.109Z,2.80
2022-10-09T23:56:33.952Z,2.63
2022-10-09T23:59:02.081Z,2.58
